Time;durP1;ratioP1;P1;durP2;ratioP2;P2;SDS_P1;SDS_P2;PMS_P1;PMS_P2;Temp;Humidity;BMP_temperature;BMP_pressure;BME280_temperature;BME280_humidity;BME280_pressure;Samples;Min_cycle;Max_cycle;Signal;HPM_P1;HPM_P2
2023/04/13 08:11:52;;;;;;;0.10;0.10;;;;;;;24.36;38.30;99911.00;15734323;27;63412;-56
2023/04/13 08:22:46;;;;;;;0.20;0.20;;;;;;;23.83;38.88;99930.97;15828512;27;20430;-41
2023/04/13 08:30:20;;;;;;;0.60;0.15;;;;;;;23.87;38.72;99939.47;15816520;28;20028;-32
2023/04/13 08:38:04;;;;;;;3.83;0.40;;;;;;;24.21;38.12;99936.19;15817725;28;20045;-40
2023/04/13 08:45:41;;;;;;;0.68;0.17;;;;;;;23.99;38.43;99935.13;15815296;28;20559;-42
2023/04/13 08:53:17;;;;;;;1.73;0.35;;;;;;;23.85;38.56;99939.06;15815328;28;20482;-37
2023/04/13 09:00:51;;;;;;;0.22;0.10;;;;;;;24.16;38.14;99931.81;15793307;28;20446;-43
2023/04/13 09:08:33;;;;;;;0.10;0.10;;;;;;;23.45;39.42;99938.34;15813350;28;20421;-43
2023/04/13 09:16:08;;;;;;;0.13;0.05;;;;;;;23.82;38.67;99945.66;15816366;28;20527;-41
2023/04/13 09:23:59;;;;;;;0.20;0.20;;;;;;;23.80;38.55;99943.25;15817032;28;20051;-46
2023/04/13 09:31:33;;;;;;;0.00;0.00;;;;;;;23.86;38.64;99955.75;15785818;28;20036;-36
2023/04/13 09:39:07;;;;;;;0.10;0.10;;;;;;;23.95;38.68;99954.31;15755416;28;20128;-38
2023/04/13 09:46:40;;;;;;;0.22;0.00;;;;;;;24.00;38.36;99962.34;15772008;28;20131;-40
2023/04/13 09:54:20;;;;;;;0.15;0.08;;;;;;;23.79;38.69;99955.09;15781103;28;20060;-44
2023/04/13 10:01:54;;;;;;;0.55;0.17;;;;;;;24.00;38.62;99953.81;15772236;28;20470;-40
2023/04/13 10:09:28;;;;;;;1.33;0.30;;;;;;;24.15;38.36;99960.75;15770957;28;20049;-43
2023/04/13 10:17:18;;;;;;;0.38;0.10;;;;;;;24.08;38.34;99981.69;15742147;28;20047;-38
2023/04/13 10:24:52;;;;;;;0.20;0.13;;;;;;;23.76;39.15;99979.59;15740983;28;20131;-33
2023/04/13 10:32:27;;;;;;;0.20;0.20;;;;;;;24.03;38.93;99962.25;15748286;28;20042;-34
2023/04/13 10:40:06;;;;;;;0.32;0.30;;;;;;;24.10;39.13;99967.00;15757874;28;20036;-37
2023/04/13 10:47:39;;;;;;;0.20;0.10;;;;;;;24.32;38.25;99979.50;15737601;28;20045;-41
2023/04/13 10:55:15;;;;;;;0.35;0.20;;;;;;;24.13;38.79;99989.69;15737285;28;20104;-40
2023/04/13 11:02:50;;;;;;;0.13;0.10;;;;;;;24.55;38.49;99991.97;15736378;28;20044;-41
2023/04/13 11:10:28;;;;;;;0.00;0.00;;;;;;;24.66;37.98;99992.50;15735060;28;20135;-39
2023/04/13 11:18:02;;;;;;;0.50;0.20;;;;;;;24.73;37.43;100009.44;15735367;28;20051;-39
2023/04/13 11:25:36;;;;;;;0.20;0.20;;;;;;;24.58;37.87;100019.59;15734582;28;20079;-42
2023/04/13 11:36:48;;;;;;;0.88;0.38;;;;;;;25.12;36.80;100008.44;15794454;27;20556;-36
2023/04/13 11:44:22;;;;;;;0.55;0.10;;;;;;;25.10;37.08;100010.13;15744323;28;20037;-34
2023/04/13 11:51:57;;;;;;;0.10;0.10;;;;;;;25.08;36.98;100015.47;15731616;28;20048;-35
2023/04/13 11:59:30;;;;;;;0.95;0.30;;;;;;;24.93;37.48;100020.75;15729089;28;20052;-35
2023/04/13 12:07:10;;;;;;;0.70;0.10;;;;;;;24.97;37.39;100010.03;15737533;22;20135;-78
2023/04/13 12:14:54;;;;;;;0.00;0.00;;;;;;;25.16;36.71;100006.28;15679683;28;20588;-81
2023/04/13 12:22:38;;;;;;;0.45;0.10;;;;;;;25.13;37.20;100021.44;15690682;22;20053;-36
2023/04/13 12:30:12;;;;;;;0.13;0.10;;;;;;;25.21;37.00;100017.13;15665257;28;20041;-36
2023/04/13 12:37:48;;;;;;;0.00;0.00;;;;;;;25.14;36.96;100014.50;15629989;28;20453;-37
2023/04/13 12:45:21;;;;;;;0.03;0.03;;;;;;;25.47;36.50;100022.94;15617606;28;20046;-35
2023/04/13 12:52:57;;;;;;;0.55;0.10;;;;;;;25.39;36.44;100016.63;15589105;28;20038;-36
2023/04/13 13:00:30;;;;;;;0.10;0.10;;;;;;;25.28;36.66;100021.84;15606390;28;20136;-36
2023/04/13 13:08:05;;;;;;;0.20;0.13;;;;;;;25.28;36.73;100022.66;15596270;28;20058;-36
2023/04/13 13:15:38;;;;;;;0.00;0.00;;;;;;;25.20;36.82;100018.38;15577472;28;20485;-35
2023/04/13 13:23:14;;;;;;;1.23;0.10;;;;;;;25.35;36.66;100013.09;15601982;28;20069;-35
2023/04/13 13:30:49;;;;;;;0.00;0.00;;;;;;;25.40;36.70;100014.56;15561559;28;20046;-35
2023/04/13 13:38:23;;;;;;;0.30;0.13;;;;;;;25.42;36.33;100017.78;15616876;28;20103;-34
2023/04/13 13:45:57;;;;;;;0.00;0.00;;;;;;;25.29;36.95;100018.53;15562798;28;20452;-35
2023/04/13 13:53:32;;;;;;;0.55;0.15;;;;;;;25.50;36.44;100033.47;15564629;28;20045;-35
2023/04/13 14:01:05;;;;;;;0.00;0.00;;;;;;;25.53;36.50;100027.66;15581214;28;20045;-35
2023/04/13 14:08:39;;;;;;;0.00;0.00;;;;;;;25.31;36.92;100038.88;15602059;28;20073;-35
2023/04/13 14:16:12;;;;;;;0.57;0.13;;;;;;;25.33;36.93;100033.53;15581022;28;20042;-35
2023/04/13 14:23:49;;;;;;;0.40;0.20;;;;;;;25.44;36.51;100035.28;15592396;28;20065;-35
2023/04/13 14:31:22;;;;;;;0.00;0.00;;;;;;;25.27;36.71;100038.19;15610227;28;20424;-35
2023/04/13 15:00:39;;;;;;;14.25;4.03;;;;;;;23.06;35.09;100051.09;15862113;27;20391;-38
2023/04/13 15:10:04;;;;;;;13.40;3.38;;;;;;;22.53;36.17;100081.81;15850510;27;20395;-35
2023/04/13 15:17:37;;;;;;;6.35;2.35;;;;;;;22.10;36.99;100095.75;15774342;28;20491;-37
2023/04/13 15:25:12;;;;;;;7.70;2.42;;;;;;;21.84;37.64;100093.53;15768507;28;20045;-38
2023/04/13 15:32:47;;;;;;;4.90;1.70;;;;;;;21.73;37.93;100096.72;15738761;28;20075;-36
2023/04/13 15:40:24;;;;;;;3.97;2.15;;;;;;;21.54;38.41;100113.16;15753072;28;20066;-37
2023/04/13 15:47:57;;;;;;;11.10;2.33;;;;;;;21.56;38.17;100113.69;15766300;28;20033;-37
2023/04/13 15:55:32;;;;;;;4.63;1.95;;;;;;;21.49;38.85;100132.34;15756167;28;20443;-36
2023/04/13 16:03:05;;;;;;;14.77;2.60;;;;;;;21.37;38.64;100133.63;15726384;28;20471;-36
2023/04/13 16:36:39;;;;;;;0.00;0.00;;;;;;;14.87;41.93;100219.09;15715704;28;70359;-51
2023/04/13 16:44:12;;;;;;;0.10;0.08;;;;;;;14.64;42.15;100237.22;15619581;23;20162;-55
2023/04/13 16:51:47;;;;;;;0.22;0.13;;;;;;;14.66;42.81;100235.06;15528849;28;20376;-48
2023/04/13 16:59:20;;;;;;;0.50;0.20;;;;;;;14.36;43.29;100239.97;15512858;28;20534;-49
2023/04/13 17:07:00;;;;;;;0.00;0.00;;;;;;;14.36;43.61;100243.53;15553702;28;20475;-47
2023/04/13 17:14:33;;;;;;;6.70;0.47;;;;;;;14.09;44.17;100262.28;15552099;28;20038;-48
2023/04/13 17:22:07;;;;;;;0.38;0.32;;;;;;;14.47;43.23;100261.50;15569230;28;20210;-48
2023/04/13 17:29:40;;;;;;;0.20;0.10;;;;;;;14.37;44.87;100272.16;15549836;28;20074;-49
2023/04/13 17:37:15;;;;;;;0.93;0.20;;;;;;;14.28;45.15;100270.94;15535468;28;20467;-50
2023/04/13 17:44:49;;;;;;;0.45;0.20;;;;;;;14.06;45.94;100264.63;15563369;28;20126;-49
2023/04/13 17:52:24;;;;;;;0.17;0.03;;;;;;;13.98;46.76;100273.94;15490608;28;20093;-50
2023/04/13 17:59:58;;;;;;;0.00;0.00;;;;;;;13.58;47.98;100274.06;15481693;28;20035;-48
2023/04/13 18:07:32;;;;;;;0.73;0.30;;;;;;;13.20;48.92;100261.97;15473503;28;20061;-50
2023/04/13 18:15:07;;;;;;;3.03;0.85;;;;;;;12.83;50.47;100272.25;15461229;28;20048;-49
2023/04/13 18:22:41;;;;;;;1.92;1.67;;;;;;;12.40;51.38;100284.19;15523492;28;20430;-49
2023/04/13 18:30:15;;;;;;;2.13;1.13;;;;;;;12.11;52.11;100291.28;15518826;28;20077;-48
2023/04/13 18:37:49;;;;;;;;;;;;;;;11.84;52.60;100315.06;15521510;28;20054;-48
2023/04/13 18:45:25;;;;;;;1.35;1.25;;;;;;;11.44;53.22;100327.16;15483735;28;19938;-49
2023/04/13 18:52:59;;;;;;;1.87;0.80;;;;;;;11.40;54.08;100363.59;15478014;28;20455;-48
2023/04/13 19:00:32;;;;;;;0.63;0.60;;;;;;;11.28;54.87;100392.25;15500488;28;20046;-50
2023/04/13 19:08:08;;;;;;;3.10;0.75;;;;;;;10.95;56.86;100395.25;15431313;28;20105;-49
2023/04/13 19:15:41;;;;;;;1.83;1.13;;;;;;;10.77;56.62;100417.53;15486232;28;20050;-52
2023/04/13 19:23:15;;;;;;;1.17;0.70;;;;;;;10.50;57.46;100411.56;15501068;28;20077;-49
2023/04/13 19:30:48;;;;;;;0.30;0.20;;;;;;;10.38;57.72;100446.28;15500664;28;20069;-51
2023/04/13 19:38:23;;;;;;;0.37;0.37;;;;;;;10.41;57.87;100456.59;15510559;28;20050;-51
2023/04/13 19:45:56;;;;;;;1.63;0.82;;;;;;;10.10;59.12;100456.53;15535817;28;20165;-53
2023/04/13 19:53:30;;;;;;;0.70;0.43;;;;;;;9.94;58.88;100463.22;15512359;28;20606;-49
2023/04/13 20:01:06;;;;;;;6.30;0.55;;;;;;;9.76;59.23;100463.09;15493349;28;20048;-49
2023/04/13 20:08:42;;;;;;;1.55;0.63;;;;;;;9.40;61.08;100443.78;15482271;28;20089;-50
2023/04/13 20:16:16;;;;;;;3.10;1.38;;;;;;;9.70;59.97;100449.50;15495698;28;20038;-48
2023/04/13 20:23:50;;;;;;;0.20;0.20;;;;;;;9.44;60.76;100447.72;15461000;28;20096;-50
2023/04/13 20:31:23;;;;;;;2.67;1.80;;;;;;;8.90;61.63;100397.13;15535272;28;20108;-48
2023/04/13 20:38:59;;;;;;;11.63;2.75;;;;;;;9.20;61.02;100417.06;15531336;28;20062;-49
2023/04/13 20:46:34;;;;;;;4.13;2.38;;;;;;;8.83;61.53;100415.88;15535803;28;20050;-49
2023/04/13 20:54:09;;;;;;;3.45;1.52;;;;;;;8.85;61.48;100416.47;15470525;28;20046;-49
2023/04/13 21:01:41;;;;;;;7.57;2.42;;;;;;;8.65;61.81;100421.03;15509519;28;20038;-48
2023/04/13 21:09:16;;;;;;;7.23;3.07;;;;;;;8.62;61.85;100419.56;15495954;28;20069;-50
2023/04/13 21:16:49;;;;;;;8.10;2.50;;;;;;;8.43;62.00;100423.88;15484498;28;20038;-49
2023/04/13 21:24:23;;;;;;;4.07;2.50;;;;;;;8.28;62.86;100414.38;15507538;28;20411;-50
2023/04/13 21:31:56;;;;;;;3.55;2.25;;;;;;;8.18;62.48;100399.53;15482332;28;20125;-52
2023/04/13 21:39:34;;;;;;;6.95;2.25;;;;;;;8.18;63.02;100404.88;15503495;28;20049;-50
2023/04/13 21:47:06;;;;;;;13.32;2.25;;;;;;;8.01;63.32;100402.78;15489286;28;20034;-48
2023/04/13 21:54:41;;;;;;;12.80;2.67;;;;;;;7.79;63.63;100404.78;15501467;28;20125;-52
2023/04/13 22:02:14;;;;;;;4.85;2.58;;;;;;;7.78;63.87;100421.81;15536549;28;20586;-49
2023/04/13 22:09:50;;;;;;;5.55;1.77;;;;;;;7.77;63.86;100425.53;15548094;28;20474;-49
2023/04/13 22:17:23;;;;;;;5.97;3.03;;;;;;;7.57;64.29;100436.94;15534165;28;20574;-53
2023/04/13 22:24:58;;;;;;;3.23;2.00;;;;;;;7.62;64.51;100447.84;15513903;28;20042;-53
2023/04/13 22:32:32;;;;;;;10.95;3.10;;;;;;;7.50;64.75;100444.09;15497961;28;20427;-48
2023/04/13 22:40:08;;;;;;;4.83;2.13;;;;;;;7.59;64.04;100436.75;15546850;28;20534;-51
2023/04/13 22:48:11;;;;;;;20.63;3.17;;;;;;;7.53;65.30;100437.53;15617335;23;20046;-83
2023/04/13 23:04:13;;;;;;;3.22;1.67;;;;;;;7.58;64.90;100433.25;15468176;23;20165;-55
2023/04/13 23:11:46;;;;;;;2.38;1.50;;;;;;;7.66;64.42;100424.25;15444382;28;20131;-51
2023/04/13 23:19:21;;;;;;;0.68;0.68;;;;;;;7.51;65.01;100405.69;15458010;28;20054;-55
2023/04/13 23:26:55;;;;;;;2.83;1.52;;;;;;;7.02;66.32;100403.16;15444620;28;20101;-52
2023/04/13 23:34:29;;;;;;;2.92;1.00;;;;;;;7.49;65.18;100394.38;15453981;28;20054;-52
2023/04/13 23:42:02;;;;;;;2.80;1.15;;;;;;;7.41;65.69;100408.75;15485315;28;20054;-55
2023/04/13 23:49:37;;;;;;;;;;;;;;;7.48;65.66;100406.09;15478392;28;20478;-54
2023/04/13 23:57:11;;;;;;;2.35;1.33;;;;;;;7.47;65.96;100408.97;15477821;28;19922;-52
